Time;durP1;ratioP1;P1;durP2;ratioP2;P2;SDS_P1;SDS_P2;PMS_P1;PMS_P2;Temp;Humidity;BMP_temperature;BMP_pressure;BME280_temperature;BME280_humidity;BME280_pressure;Samples;Min_cycle;Max_cycle;Signal;HPM_P1;HPM_P2
2023/10/13 00:01:43;;;;;;;;;;;;;;;10.23;83.99;95744.94;5095814;28;1024;-59
2023/10/13 00:04:10;;;;;;;;;;;;;;;10.16;83.76;95742.00;5095692;28;1021;-58
2023/10/13 00:06:37;;;;;;;;;;;;;;;10.10;83.71;95744.41;5095971;28;1909;-58
2023/10/13 00:09:04;;;;;;;;;;;;;;;9.89;83.96;95737.41;5095797;28;1213;-58
2023/10/13 00:11:30;;;;;;;;;;;;;;;9.81;84.58;95742.63;5095608;28;984;-58
2023/10/13 00:13:56;;;;;;;;;;;;;;;9.78;84.94;95737.56;5095599;28;1108;-58
2023/10/13 00:16:22;;;;;;;;;;;;;;;9.72;85.28;95744.31;5095666;28;1086;-58
2023/10/13 00:18:50;;;;;;;;;;;;;;;9.76;84.70;95745.69;5095588;28;1115;-58
2023/10/13 00:21:24;;;;;;;;;;;;;;;9.76;84.77;95740.38;5095303;28;1072;-58
2023/10/13 00:23:52;;;;;;;;;;;;;;;9.83;84.74;95731.81;5095386;28;1091;-58
2023/10/13 00:26:23;;;;;;;;;;;;;;;9.80;84.55;95726.75;5094005;28;1910;-58
2023/10/13 00:28:58;;;;;;;;;;;;;;;9.66;85.28;95731.53;5094832;28;961;-58
2023/10/13 00:31:31;;;;;;;;;;;;;;;9.57;85.90;95725.19;5095343;28;1011;-58
2023/10/13 00:34:01;;;;;;;;;;;;;;;9.60;86.70;95720.56;5095183;28;1220;-58
2023/10/13 00:36:27;;;;;;;;;;;;;;;9.64;86.40;95724.66;5095350;28;1047;-58
2023/10/13 00:38:56;;;;;;;;;;;;;;;9.72;85.69;95722.09;5095162;28;1035;-58
2023/10/13 00:41:44;;;;;;;;;;;;;;;9.79;85.61;95723.22;5095159;28;984;-58
2023/10/13 00:44:08;;;;;;;;;;;;;;;9.73;85.19;95726.44;5094944;28;1115;-58
2023/10/13 00:46:35;;;;;;;;;;;;;;;9.85;84.95;95728.00;5095064;28;1914;-58
2023/10/13 00:49:04;;;;;;;;;;;;;;;9.94;84.66;95729.81;5094779;28;1225;-58
2023/10/13 00:51:34;;;;;;;;;;;;;;;9.84;84.71;95726.28;5094736;28;1854;-58
2023/10/13 00:54:07;;;;;;;;;;;;;;;9.85;84.33;95728.00;5094721;28;1323;-58
2023/10/13 00:56:34;;;;;;;;;;;;;;;9.62;84.54;95738.13;5094593;28;1036;-58
2023/10/13 00:59:02;;;;;;;;;;;;;;;9.60;84.80;95733.91;5095004;28;1055;-58
2023/10/13 01:01:34;;;;;;;;;;;;;;;9.58;83.94;95729.56;5094795;28;1032;-59
2023/10/13 01:04:02;;;;;;;;;;;;;;;9.32;84.36;95731.09;5094859;28;952;-58
2023/10/13 01:06:28;;;;;;;;;;;;;;;9.22;84.87;95735.56;5094713;28;1914;-58
2023/10/13 01:09:16;;;;;;;;;;;;;;;9.14;85.36;95730.91;5094476;28;1123;-58
2023/10/13 01:11:55;;;;;;;;;;;;;;;9.24;85.45;95744.28;5094761;28;1032;-58
2023/10/13 01:14:23;;;;;;;;;;;;;;;9.28;85.30;95732.38;5094377;28;1011;-59
2023/10/13 01:16:52;;;;;;;;;;;;;;;9.31;85.30;95734.75;5094189;28;1025;-58
2023/10/13 01:19:24;;;;;;;;;;;;;;;9.35;85.33;95741.47;5094190;28;1127;-58
2023/10/13 01:22:12;;;;;;;;;;;;;;;9.38;85.51;95736.72;5094559;28;1024;-58
2023/10/13 01:24:37;;;;;;;;;;;;;;;9.35;85.40;95737.00;5094556;28;968;-58
2023/10/13 01:27:17;;;;;;;;;;;;;;;9.36;85.23;95730.66;5094356;28;1989;-58
2023/10/13 01:29:48;;;;;;;;;;;;;;;9.26;85.73;95736.97;5094368;28;984;-58
2023/10/13 01:32:15;;;;;;;;;;;;;;;9.30;85.58;95733.06;5094341;28;980;-58
2023/10/13 01:34:45;;;;;;;;;;;;;;;9.34;85.15;95735.31;5094368;28;968;-58
2023/10/13 01:37:11;;;;;;;;;;;;;;;9.42;84.81;95739.94;5093928;28;1012;-58
2023/10/13 01:39:37;;;;;;;;;;;;;;;9.39;84.95;95742.91;5093539;28;1040;-59
2023/10/13 01:42:03;;;;;;;;;;;;;;;9.42;84.64;95728.44;5093357;28;1102;-59
2023/10/13 01:44:30;;;;;;;;;;;;;;;9.32;85.04;95737.28;5094026;28;980;-58
2023/10/13 01:46:59;;;;;;;;;;;;;;;9.22;85.40;95740.91;5094068;28;1991;-58
2023/10/13 01:49:27;;;;;;;;;;;;;;;9.17;85.47;95747.50;5093952;28;1157;-58
2023/10/13 01:51:53;;;;;;;;;;;;;;;9.16;85.91;95748.50;5093845;28;964;-58
2023/10/13 01:54:21;;;;;;;;;;;;;;;9.27;85.27;95749.34;5093523;28;1088;-59
2023/10/13 01:56:48;;;;;;;;;;;;;;;9.16;85.58;95737.81;5093947;28;1123;-58
2023/10/13 01:59:15;;;;;;;;;;;;;;;9.19;85.46;95745.53;5093856;28;960;-59
2023/10/13 02:01:41;;;;;;;;;;;;;;;9.17;85.55;95746.66;5093602;28;1044;-59
2023/10/13 02:04:10;;;;;;;;;;;;;;;9.21;85.33;95745.41;5093698;28;1038;-59
2023/10/13 02:06:37;;;;;;;;;;;;;;;9.18;85.20;95753.66;5093819;28;1985;-59
2023/10/13 02:09:13;;;;;;;;;;;;;;;9.06;85.32;95752.94;5093540;28;1070;-58
2023/10/13 02:11:40;;;;;;;;;;;;;;;9.23;84.22;95750.59;5093810;28;996;-58
2023/10/13 02:14:06;;;;;;;;;;;;;;;9.08;83.86;95755.50;5093470;28;1095;-59
2023/10/13 02:16:32;;;;;;;;;;;;;;;8.88;84.77;95755.44;5093708;28;1028;-59
2023/10/13 02:19:03;;;;;;;;;;;;;;;8.76;85.34;95745.84;5093388;28;969;-58
2023/10/13 02:21:34;;;;;;;;;;;;;;;8.66;85.87;95743.16;5093336;28;1003;-59
2023/10/13 02:24:02;;;;;;;;;;;;;;;8.71;86.17;95740.94;5093374;28;1096;-59
2023/10/13 02:26:32;;;;;;;;;;;;;;;8.87;86.31;95748.41;5093475;28;1975;-58
2023/10/13 02:29:00;;;;;;;;;;;;;;;8.97;85.94;95737.75;5093526;28;1251;-59
2023/10/13 02:31:27;;;;;;;;;;;;;;;8.85;86.48;95737.03;5093299;28;1020;-59
2023/10/13 02:33:53;;;;;;;;;;;;;;;8.90;86.44;95747.31;5092065;28;1100;-59
2023/10/13 02:36:36;;;;;;;;;;;;;;;9.01;86.20;95741.88;5093367;28;936;-59
2023/10/13 02:39:07;;;;;;;;;;;;;;;8.96;85.64;95747.59;5093203;28;1048;-58
2023/10/13 02:41:37;;;;;;;;;;;;;;;9.14;85.00;95745.13;5093339;28;1082;-58
2023/10/13 02:44:06;;;;;;;;;;;;;;;8.92;85.63;95740.03;5093189;28;1115;-59
2023/10/13 02:46:39;;;;;;;;;;;;;;;8.83;85.69;95751.50;5093062;28;1993;-59
2023/10/13 02:49:11;;;;;;;;;;;;;;;8.80;85.28;95747.25;5093380;28;1208;-58
2023/10/13 02:51:41;;;;;;;;;;;;;;;8.84;85.88;95742.50;5093882;28;1036;-58
2023/10/13 02:54:11;;;;;;;;;;;;;;;8.87;84.96;95736.91;5096972;28;1072;-59
2023/10/13 02:56:38;;;;;;;;;;;;;;;8.57;85.43;95743.97;5097022;28;960;-59
2023/10/13 02:59:07;;;;;;;;;;;;;;;8.50;86.32;95745.47;5097019;28;1038;-59
2023/10/13 03:01:36;;;;;;;;;;;;;;;8.51;86.56;95737.34;5097167;28;968;-59
2023/10/13 03:04:08;;;;;;;;;;;;;;;8.56;86.00;95740.47;5096825;28;1115;-59
2023/10/13 03:06:35;;;;;;;;;;;;;;;8.56;85.76;95744.94;5096859;28;1985;-59
2023/10/13 03:09:14;;;;;;;;;;;;;;;8.49;86.02;95743.78;5096907;28;964;-59
2023/10/13 03:11:48;;;;;;;;;;;;;;;8.38;86.64;95745.56;5096775;28;932;-58
2023/10/13 03:14:23;;;;;;;;;;;;;;;8.39;86.29;95743.72;5096722;28;1068;-59
2023/10/13 03:17:04;;;;;;;;;;;;;;;8.40;86.43;95753.38;5095784;28;1154;-59
2023/10/13 03:19:33;;;;;;;;;;;;;;;8.49;86.11;95754.44;5096575;28;1092;-60
2023/10/13 03:22:09;;;;;;;;;;;;;;;8.33;86.27;95749.59;5095628;28;1008;-60
2023/10/13 03:24:35;;;;;;;;;;;;;;;8.27;86.71;95760.75;5096566;28;1095;-61
2023/10/13 03:27:08;;;;;;;;;;;;;;;8.38;87.11;95763.34;5096656;28;1994;-62
2023/10/13 03:29:44;;;;;;;;;;;;;;;8.43;86.35;95755.84;5096734;28;1007;-60
2023/10/13 03:32:11;;;;;;;;;;;;;;;8.30;86.52;95757.84;5096624;28;1050;-61
2023/10/13 03:34:41;;;;;;;;;;;;;;;8.28;86.64;95752.63;5096554;28;968;-61
2023/10/13 03:37:17;;;;;;;;;;;;;;;8.30;86.71;95750.69;5096520;28;1138;-60
2023/10/13 03:39:45;;;;;;;;;;;;;;;8.25;86.80;95747.56;5096466;28;996;-60
2023/10/13 03:42:18;;;;;;;;;;;;;;;8.16;87.27;95753.72;5096402;28;1027;-60
2023/10/13 03:44:46;;;;;;;;;;;;;;;8.14;87.02;95753.00;5096224;28;1052;-60
2023/10/13 03:47:18;;;;;;;;;;;;;;;8.12;87.86;95747.78;5096220;28;1918;-62
2023/10/13 03:49:45;;;;;;;;;;;;;;;8.20;87.51;95752.47;5095966;28;1314;-59
2023/10/13 03:52:13;;;;;;;;;;;;;;;8.37;88.67;95761.66;5095833;28;1028;-60
2023/10/13 03:54:40;;;;;;;;;;;;;;;8.51;87.44;95765.81;5095813;28;1088;-60
2023/10/13 03:57:11;;;;;;;;;;;;;;;8.48;87.32;95760.75;5095810;28;1537;-60
2023/10/13 03:59:38;;;;;;;;;;;;;;;8.48;87.42;95747.41;5095807;28;1007;-59
2023/10/13 04:02:11;;;;;;;;;;;;;;;8.42;86.65;95753.28;5095705;28;1080;-59
2023/10/13 04:17:25;;;;;;;;;;;;;;;8.09;87.47;95723.22;5095660;28;1020;-59
2023/10/13 04:36:21;;;;;;;;;;;;;;;8.13;87.28;95753.97;5095384;28;1023;-59
2023/10/13 04:38:59;;;;;;;;;;;;;;;8.05;87.35;95761.75;5093852;28;1080;-59
2023/10/13 04:41:31;;;;;;;;;;;;;;;8.00;87.17;95754.97;5095144;28;1218;-59
2023/10/13 04:57:46;;;;;;;;;;;;;;;8.02;86.96;95750.41;5094717;28;1087;-58
2023/10/13 06:29:41;;;;;;;;;;;;;;;21.44;42.91;95861.22;5097771;28;1059;-59
2023/10/13 06:32:11;;;;;;;;;;;;;;;19.93;45.41;95851.56;5097887;28;1007;-59
2023/10/13 06:34:47;;;;;;;;;;;;;;;18.36;48.96;95843.72;5097763;28;1016;-59
2023/10/13 06:37:49;;;;;;;;;;;;;;;17.54;51.18;95826.72;5097804;28;1011;-58
2023/10/13 06:40:22;;;;;;;;;;;;;;;17.15;53.95;95833.25;5097113;28;1149;-59
2023/10/13 06:42:49;;;;;;;;;;;;;;;16.48;56.57;95834.84;5097350;28;1052;-59
2023/10/13 06:45:16;;;;;;;;;;;;;;;16.07;58.84;95829.75;5097310;28;1032;-58
2023/10/13 06:47:43;;;;;;;;;;;;;;;16.17;58.71;95824.94;5097469;28;1909;-59
2023/10/13 06:50:15;;;;;;;;;;;;;;;16.51;58.03;95830.97;5097177;28;1162;-58
2023/10/13 06:52:42;;;;;;;;;;;;;;;16.31;58.74;95836.81;5097100;28;1501;-58
2023/10/13 06:55:10;;;;;;;;;;;;;;;16.63;58.25;95842.97;5097463;28;1043;-61
2023/10/13 06:57:36;;;;;;;;;;;;;;;16.79;57.70;95836.63;5097289;28;952;-58
2023/10/13 07:00:07;;;;;;;;;;;;;;;16.82;58.30;95843.50;5097062;28;1107;-58
2023/10/13 07:02:34;;;;;;;;;;;;;;;16.70;58.46;95851.22;5097374;28;1038;-58
2023/10/13 07:05:11;;;;;;;;;;;;;;;16.82;58.83;95849.78;5097127;28;991;-59
2023/10/13 07:07:40;;;;;;;;;;;;;;;16.57;58.75;95841.03;5096984;28;1910;-59
2023/10/13 07:10:09;;;;;;;;;;;;;;;16.35;60.23;95835.47;5096895;28;1019;-59
2023/10/13 07:12:37;;;;;;;;;;;;;;;16.70;60.04;95835.00;5097030;28;976;-59
2023/10/13 07:17:54;;;;;;;;;;;;;;;17.00;58.81;95824.28;5097092;28;999;-59
2023/10/13 07:20:33;;;;;;;;;;;;;;;17.18;57.57;95832.88;5096668;28;972;-59
2023/10/13 07:23:06;;;;;;;;;;;;;;;17.18;59.47;95822.06;5096904;28;1283;-59
2023/10/13 07:25:37;;;;;;;;;;;;;;;17.08;58.65;95829.59;5081630;28;3069;-59
2023/10/13 07:28:03;;;;;;;;;;;;;;;17.31;58.08;95827.66;5076282;28;1914;-59
2023/10/13 07:30:39;;;;;;;;;;;;;;;17.29;58.11;95818.06;5076465;28;961;-59
2023/10/13 07:33:05;;;;;;;;;;;;;;;17.51;58.31;95818.97;5076210;28;1091;-59
2023/10/13 07:35:35;;;;;;;;;;;;;;;17.82;57.25;95818.75;5076370;28;964;-58
2023/10/13 07:38:01;;;;;;;;;;;;;;;17.93;57.12;95818.28;5076320;28;1335;-58
2023/10/13 07:43:00;;;;;;;;;;;;;;;18.32;54.79;95817.00;5076310;28;1047;-59
2023/10/13 07:45:38;;;;;;;;;;;;;;;18.43;56.29;95812.13;5075932;28;975;-58
2023/10/13 07:48:16;;;;;;;;;;;;;;;18.67;55.06;95813.59;5075827;28;1909;-58
2023/10/13 07:50:45;;;;;;;;;;;;;;;18.98;54.01;95818.66;5092317;28;1067;-59
2023/10/13 07:53:23;;;;;;;;;;;;;;;18.92;53.00;95820.28;5095798;28;1226;-59
2023/10/13 07:55:56;;;;;;;;;;;;;;;19.00;54.27;95816.59;5096302;28;1035;-59
2023/10/13 07:58:25;;;;;;;;;;;;;;;19.08;52.68;95812.88;5095911;28;1012;-58
2023/10/13 08:01:16;;;;;;;;;;;;;;;19.31;52.13;95809.91;5096184;28;1047;-58
2023/10/13 08:03:44;;;;;;;;;;;;;;;19.31;52.62;95802.63;5095714;28;1279;-59
2023/10/13 08:08:40;;;;;;;;;;;;;;;19.46;52.50;95807.94;5084969;28;2658;-59
2023/10/13 08:14:11;;;;;;;;;;;;;;;19.75;51.41;95807.84;5075470;28;1072;-59
2023/10/13 08:16:54;;;;;;;;;;;;;;;19.82;50.86;95809.53;5075671;28;1016;-59
2023/10/13 08:19:26;;;;;;;;;;;;;;;19.91;51.74;95802.09;5075412;28;2917;-58
2023/10/13 08:22:23;;;;;;;;;;;;;;;20.02;49.92;95801.50;5075966;28;2897;-57
2023/10/13 08:37:32;;;;;;;;;;;;;;;20.85;48.03;95767.78;5095200;28;1469;-57
2023/10/13 09:09:40;;;;;;;;;;;;;;;20.84;48.33;95769.63;5094435;28;1522;-61
2023/10/13 09:12:13;;;;;;;;;;;;;;;21.30;47.78;95773.31;5094361;28;1562;-61
2023/10/13 09:14:57;;;;;;;;;;;;;;;21.47;45.75;95779.16;5094732;28;1439;-60
2023/10/13 09:20:24;;;;;;;;;;;;;;;21.67;46.14;95775.56;5094505;28;1507;-60
2023/10/13 09:25:36;;;;;;;;;;;;;;;20.86;48.41;95750.41;5094624;28;1438;-60
2023/10/13 09:28:14;;;;;;;;;;;;;;;21.21;47.89;95750.16;5094020;28;1914;-60
2023/10/13 09:30:49;;;;;;;;;;;;;;;21.74;47.00;95747.28;5093133;28;1681;-62
2023/10/13 09:33:32;;;;;;;;;;;;;;;22.12;46.31;95759.19;5094184;28;1690;-60
2023/10/13 09:36:12;;;;;;;;;;;;;;;22.34;46.10;95757.00;5094323;28;1466;-60
2023/10/13 09:38:48;;;;;;;;;;;;;;;22.53;45.53;95761.47;5094658;28;1578;-60
2023/10/13 09:41:26;;;;;;;;;;;;;;;22.38;44.34;95761.78;5094082;28;1459;-60
2023/10/13 09:43:58;;;;;;;;;;;;;;;22.51;44.74;95749.94;5094033;28;1424;-59
2023/10/13 09:46:34;;;;;;;;;;;;;;;22.73;45.09;95744.13;5092842;28;1499;-59
2023/10/13 09:49:33;;;;;;;;;;;;;;;22.97;43.56;95751.47;5094011;28;1455;-59
2023/10/13 09:52:07;;;;;;;;;;;;;;;23.29;43.92;95745.06;5093965;28;1436;-59
2023/10/13 09:54:44;;;;;;;;;;;;;;;23.48;43.37;95749.47;5093533;28;1708;-58
2023/10/13 09:57:18;;;;;;;;;;;;;;;23.34;41.92;95742.50;5093769;28;2058;-61
2023/10/13 09:59:56;;;;;;;;;;;;;;;23.22;43.61;95731.53;5093915;28;1497;-59
2023/10/13 10:02:28;;;;;;;;;;;;;;;23.55;43.97;95720.22;5093067;28;1621;-59
2023/10/13 10:05:15;;;;;;;;;;;;;;;23.70;42.38;95719.00;5093880;28;1507;-59
2023/10/13 10:07:58;;;;;;;;;;;;;;;23.38;43.48;95708.25;5093371;28;1913;-59
2023/10/13 10:10:47;;;;;;;;;;;;;;;22.95;44.54;95690.00;5093710;28;1423;-59
2023/10/13 10:13:34;;;;;;;;;;;;;;;23.27;44.01;95684.47;5093676;28;1602;-59
2023/10/13 10:16:14;;;;;;;;;;;;;;;23.71;44.09;95686.00;5093648;28;1558;-59
2023/10/13 10:18:47;;;;;;;;;;;;;;;23.85;43.79;95683.97;5093677;28;1443;-59
2023/10/13 10:21:22;;;;;;;;;;;;;;;23.83;43.58;95680.63;5093652;28;1518;-60
2023/10/13 10:23:56;;;;;;;;;;;;;;;23.92;43.39;95676.50;5093679;28;1453;-62
2023/10/13 10:26:29;;;;;;;;;;;;;;;24.08;42.81;95680.47;5092338;28;1832;-59
2023/10/13 10:29:10;;;;;;;;;;;;;;;24.22;41.94;95675.63;5093222;28;1910;-60
2023/10/13 10:31:45;;;;;;;;;;;;;;;24.21;42.95;95668.50;5093501;28;940;-59
2023/10/13 10:34:22;;;;;;;;;;;;;;;24.27;42.61;95664.81;5093154;28;1527;-60
2023/10/13 10:36:58;;;;;;;;;;;;;;;24.37;42.37;95664.25;5093242;28;995;-59
2023/10/13 10:39:45;;;;;;;;;;;;;;;24.44;41.83;95664.16;5093301;28;1659;-58
2023/10/13 10:42:23;;;;;;;;;;;;;;;24.67;42.32;95656.00;5093336;28;1593;-59
2023/10/13 10:44:57;;;;;;;;;;;;;;;24.55;40.56;95663.38;5093479;28;977;-59
2023/10/13 10:47:36;;;;;;;;;;;;;;;24.36;40.92;95659.88;5092813;28;1902;-58
2023/10/13 10:50:19;;;;;;;;;;;;;;;24.47;42.12;95650.00;5093399;28;1439;-58
2023/10/13 10:52:51;;;;;;;;;;;;;;;24.25;41.04;95647.03;5093086;28;1451;-58
2023/10/13 10:55:28;;;;;;;;;;;;;;;24.21;41.89;95643.06;5093210;28;1476;-59
2023/10/13 10:58:01;;;;;;;;;;;;;;;24.36;41.13;95654.41;5093211;28;1698;-60
2023/10/13 11:03:37;;;;;;;;;;;;;;;24.57;41.15;95639.34;5092376;28;1677;-58
2023/10/13 11:06:17;;;;;;;;;;;;;;;24.73;41.33;95641.34;5093115;28;1451;-58
2023/10/13 11:08:52;;;;;;;;;;;;;;;24.84;41.16;95634.22;5092854;28;1918;-58
2023/10/13 11:11:35;;;;;;;;;;;;;;;24.99;39.48;95638.38;5093196;28;1819;-60
2023/10/13 11:14:22;;;;;;;;;;;;;;;25.11;38.90;95629.06;5096354;28;1479;-60
2023/10/13 11:16:59;;;;;;;;;;;;;;;25.20;39.11;95625.97;5096994;28;1406;-60
2023/10/13 11:19:41;;;;;;;;;;;;;;;25.11;38.11;95629.06;5096864;28;1688;-60
2023/10/13 11:22:32;;;;;;;;;;;;;;;25.23;38.08;95631.84;5095713;28;1586;-60
2023/10/13 11:25:10;;;;;;;;;;;;;;;25.48;37.73;95631.50;5096736;28;1494;-61
2023/10/13 11:30:25;;;;;;;;;;;;;;;25.60;37.23;95623.25;5096292;28;1535;-59
2023/10/13 11:32:59;;;;;;;;;;;;;;;25.64;36.49;95615.38;5096680;28;1497;-60
2023/10/13 11:35:49;;;;;;;;;;;;;;;25.66;37.00;95619.53;5096396;28;1428;-61
2023/10/13 11:38:27;;;;;;;;;;;;;;;25.71;36.45;95621.53;5096564;28;1579;-60
2023/10/13 11:41:14;;;;;;;;;;;;;;;25.65;35.26;95628.84;5096593;28;1458;-61
2023/10/13 11:51:51;;;;;;;;;;;;;;;25.72;35.31;95606.75;5096266;28;1822;-63
2023/10/13 11:54:24;;;;;;;;;;;;;;;25.67;35.26;95593.81;5095766;28;1432;-62
2023/10/13 11:56:58;;;;;;;;;;;;;;;25.64;35.99;95588.00;5096215;28;1533;-59
2023/10/13 11:59:36;;;;;;;;;;;;;;;25.61;35.87;95583.84;5094943;28;1447;-60
2023/10/13 12:07:27;;;;;;;;;;;;;;;25.61;35.80;95585.75;5095799;28;1949;-61
2023/10/13 12:12:40;;;;;;;;;;;;;;;25.74;32.75;95588.16;5095603;28;1662;-59
2023/10/13 12:15:25;;;;;;;;;;;;;;;25.72;33.83;95587.59;5094617;28;1428;-60
2023/10/13 12:17:57;;;;;;;;;;;;;;;25.73;32.98;95591.19;5095853;28;1448;-60
2023/10/13 12:20:33;;;;;;;;;;;;;;;25.85;33.38;95589.19;5095707;28;1463;-61
2023/10/13 12:23:15;;;;;;;;;;;;;;;25.94;32.57;95582.28;5095748;28;1308;-63
2023/10/13 12:25:57;;;;;;;;;;;;;;;25.99;34.12;95585.09;5094698;28;1675;-63
2023/10/13 12:28:37;;;;;;;;;;;;;;;25.88;34.41;95572.28;5095166;28;2000;-63
2023/10/13 12:31:11;;;;;;;;;;;;;;;25.81;34.42;95566.94;5095556;28;1458;-61
2023/10/13 12:33:42;;;;;;;;;;;;;;;25.79;33.95;95579.25;5095468;28;1464;-61
2023/10/13 12:49:58;;;;;;;;;;;;;;;25.63;34.18;95557.06;5094822;28;1547;-58
2023/10/13 12:52:34;;;;;;;;;;;;;;;25.65;33.30;95557.63;5093572;28;1431;-62
2023/10/13 12:55:06;;;;;;;;;;;;;;;25.70;32.86;95556.88;5095116;28;1604;-58
2023/10/13 12:57:43;;;;;;;;;;;;;;;25.67;33.07;95549.19;5094976;28;1471;-60
2023/10/13 13:00:22;;;;;;;;;;;;;;;25.57;32.53;95552.53;5095023;28;1461;-59
2023/10/13 13:02:55;;;;;;;;;;;;;;;25.58;33.20;95556.97;5095028;28;1587;-59
2023/10/13 13:05:31;;;;;;;;;;;;;;;25.61;33.51;95552.88;5094778;28;1495;-59
2023/10/13 13:08:03;;;;;;;;;;;;;;;25.57;35.24;95535.28;5094637;28;1968;-63
2023/10/13 13:10:35;;;;;;;;;;;;;;;25.47;35.83;95534.03;5094941;28;1378;-60
2023/10/13 13:13:08;;;;;;;;;;;;;;;25.44;35.87;95533.69;5094803;28;1490;-59
2023/10/13 13:15:40;;;;;;;;;;;;;;;25.34;33.97;95539.81;5094587;28;1796;-63
2023/10/13 13:18:14;;;;;;;;;;;;;;;25.41;33.89;95529.53;5094605;28;1469;-61
2023/10/13 13:20:55;;;;;;;;;;;;;;;25.44;33.44;95537.28;5094616;28;1439;-65
2023/10/13 13:23:31;;;;;;;;;;;;;;;25.46;34.67;95534.25;5093432;28;1626;-64
2023/10/13 13:26:08;;;;;;;;;;;;;;;25.39;35.07;95530.88;5094540;28;1465;-61
2023/10/13 13:28:40;;;;;;;;;;;;;;;25.40;34.27;95527.91;5094143;28;2002;-61
2023/10/13 13:31:12;;;;;;;;;;;;;;;25.45;34.31;95536.19;5094054;28;1534;-60
2023/10/13 13:33:44;;;;;;;;;;;;;;;25.49;34.15;95537.34;5094576;28;936;-61
2023/10/13 13:36:19;;;;;;;;;;;;;;;25.53;34.34;95521.25;5094095;28;1534;-58
2023/10/13 13:38:54;;;;;;;;;;;;;;;25.45;35.30;95530.72;5094225;28;1603;-58
2023/10/13 13:41:32;;;;;;;;;;;;;;;25.41;35.40;95532.28;5094048;28;1482;-59
2023/10/13 13:44:13;;;;;;;;;;;;;;;25.36;34.48;95521.22;5094177;28;1466;-59
2023/10/13 13:46:43;;;;;;;;;;;;;;;25.39;34.34;95531.69;5094122;28;1590;-58
2023/10/13 13:49:27;;;;;;;;;;;;;;;25.37;34.39;95524.81;5093867;28;1572;-58
2023/10/13 13:52:04;;;;;;;;;;;;;;;25.37;34.74;95533.03;5093629;28;1571;-59
2023/10/13 13:54:40;;;;;;;;;;;;;;;25.42;34.07;95531.22;5093617;28;1885;-59
2023/10/13 13:57:13;;;;;;;;;;;;;;;25.47;33.96;95531.28;5093910;28;1541;-58
2023/10/13 13:59:45;;;;;;;;;;;;;;;25.52;33.92;95527.84;5093826;28;1858;-58
2023/10/13 14:02:21;;;;;;;;;;;;;;;25.54;33.88;95527.59;5093828;28;1443;-59
2023/10/13 14:04:52;;;;;;;;;;;;;;;25.47;34.65;95520.34;5093855;28;1450;-59
2023/10/13 14:07:24;;;;;;;;;;;;;;;25.38;34.44;95526.47;5093485;28;1987;-61
2023/10/13 14:10:05;;;;;;;;;;;;;;;25.28;35.31;95518.91;5093784;28;1625;-59
2023/10/13 14:12:43;;;;;;;;;;;;;;;25.16;34.53;95524.38;5093778;28;2256;-60
2023/10/13 14:15:23;;;;;;;;;;;;;;;25.11;33.86;95519.63;5092472;28;1563;-62
2023/10/13 14:17:57;;;;;;;;;;;;;;;25.15;34.63;95517.25;5093652;28;1493;-61
2023/10/13 14:20:29;;;;;;;;;;;;;;;25.16;33.84;95529.88;5093552;28;1643;-60
2023/10/13 14:23:02;;;;;;;;;;;;;;;25.21;34.36;95524.50;5093543;28;1481;-59
2023/10/13 14:25:38;;;;;;;;;;;;;;;25.17;34.32;95530.69;5093713;28;2287;-59
2023/10/13 14:28:17;;;;;;;;;;;;;;;25.12;34.22;95525.97;5093335;28;2000;-58
2023/10/13 14:30:48;;;;;;;;;;;;;;;25.14;34.34;95532.00;5093550;28;1503;-61
2023/10/13 14:33:24;;;;;;;;;;;;;;;25.12;33.70;95528.69;5092313;28;1583;-61
2023/10/13 14:35:56;;;;;;;;;;;;;;;25.14;33.97;95524.63;5093600;28;1451;-59
2023/10/13 14:38:28;;;;;;;;;;;;;;;25.19;33.63;95528.53;5093423;28;1633;-61
2023/10/13 14:41:02;;;;;;;;;;;;;;;25.13;35.17;95524.88;5092236;28;965;-60
2023/10/13 14:43:34;;;;;;;;;;;;;;;24.97;36.92;95518.28;5092300;28;1616;-60
2023/10/13 14:46:09;;;;;;;;;;;;;;;24.82;37.29;95513.31;5093486;28;1478;-60
2023/10/13 14:48:41;;;;;;;;;;;;;;;24.69;38.60;95514.41;5095669;28;1993;-60
2023/10/13 14:51:13;;;;;;;;;;;;;;;24.47;38.63;95513.34;5075971;28;1467;-60
2023/10/13 14:53:45;;;;;;;;;;;;;;;24.42;38.73;95507.78;5076731;28;1593;-60
2023/10/13 14:56:17;;;;;;;;;;;;;;;24.30;38.28;95505.03;5076958;28;916;-59
2023/10/13 14:58:50;;;;;;;;;;;;;;;24.20;38.83;95507.56;5077048;28;1539;-60
2023/10/13 15:01:24;;;;;;;;;;;;;;;24.08;38.89;95510.28;5076937;28;1554;-60
2023/10/13 15:03:57;;;;;;;;;;;;;;;23.91;39.15;95507.44;5084456;28;2901;-60
2023/10/13 15:06:30;;;;;;;;;;;;;;;23.78;39.34;95508.44;5097088;28;1420;-60
2023/10/13 15:09:10;;;;;;;;;;;;;;;23.58;39.55;95506.88;5096850;28;1906;-60
2023/10/13 15:11:45;;;;;;;;;;;;;;;23.35;40.19;95501.34;5097109;28;1483;-60
2023/10/13 15:14:19;;;;;;;;;;;;;;;23.06;41.17;95505.75;5096657;28;1546;-60
2023/10/13 15:16:52;;;;;;;;;;;;;;;22.77;42.29;95500.84;5097044;28;1573;-59
2023/10/13 15:19:24;;;;;;;;;;;;;;;22.57;43.81;95500.25;5096592;28;1666;-59
2023/10/13 15:21:55;;;;;;;;;;;;;;;22.35;43.39;95502.63;5096917;28;1601;-59
2023/10/13 15:24:42;;;;;;;;;;;;;;;22.26;43.01;95507.53;5096883;28;1265;-59
2023/10/13 15:27:15;;;;;;;;;;;;;;;22.07;43.85;95505.81;5096595;28;1913;-58
2023/10/13 15:29:50;;;;;;;;;;;;;;;21.64;45.72;95491.97;5095282;28;1636;-57
2023/10/13 15:35:15;;;;;;;;;;;;;;;21.26;48.13;95487.38;5096556;28;1518;-58
2023/10/13 15:37:51;;;;;;;;;;;;;;;21.11;47.23;95486.84;5096326;28;1852;-58
2023/10/13 15:40:23;;;;;;;;;;;;;;;21.03;46.53;95492.56;5096556;28;1648;-58
2023/10/13 15:42:59;;;;;;;;;;;;;;;21.13;44.91;95497.50;5096450;28;1505;-58
2023/10/13 15:45:38;;;;;;;;;;;;;;;21.24;44.07;95500.34;5096350;28;1501;-59
2023/10/13 15:48:12;;;;;;;;;;;;;;;21.12;45.57;95506.75;5096261;28;1894;-60
2023/10/13 15:50:42;;;;;;;;;;;;;;;20.40;47.86;95495.97;5096203;28;1568;-58
2023/10/13 15:53:14;;;;;;;;;;;;;;;20.30;47.91;95501.84;5094850;28;1537;-57
2023/10/13 15:55:47;;;;;;;;;;;;;;;20.29;47.55;95498.28;5096285;28;1427;-57
2023/10/13 15:58:19;;;;;;;;;;;;;;;20.08;48.04;95498.53;5095911;28;1336;-59
2023/10/13 16:00:55;;;;;;;;;;;;;;;19.69;50.29;95497.50;5093777;28;1665;-58
2023/10/13 16:03:27;;;;;;;;;;;;;;;19.47;50.11;95497.72;5095900;28;1611;-59
2023/10/13 16:06:04;;;;;;;;;;;;;;;19.27;51.06;95492.31;5096111;28;1487;-58
2023/10/13 16:08:37;;;;;;;;;;;;;;;19.19;50.35;95495.19;5095702;28;2037;-59
2023/10/13 16:11:07;;;;;;;;;;;;;;;19.31;49.65;95498.97;5095939;28;1363;-58
2023/10/13 16:13:39;;;;;;;;;;;;;;;19.37;48.41;95496.47;5095878;28;884;-59
2023/10/13 16:16:15;;;;;;;;;;;;;;;19.44;48.21;95506.25;5095747;28;991;-58
2023/10/13 16:18:44;;;;;;;;;;;;;;;19.45;47.74;95505.25;5095941;28;1042;-59
2023/10/13 16:21:12;;;;;;;;;;;;;;;19.46;47.47;95508.78;5095806;28;1026;-59
2023/10/13 16:23:40;;;;;;;;;;;;;;;19.27;48.22;95505.88;5094425;28;1008;-59
2023/10/13 16:26:07;;;;;;;;;;;;;;;19.20;48.31;95513.16;5095458;28;1107;-59
2023/10/13 16:28:34;;;;;;;;;;;;;;;19.19;48.36;95514.16;5095595;28;2388;-59
2023/10/13 16:31:00;;;;;;;;;;;;;;;18.88;50.67;95522.88;5095335;28;1181;-59
2023/10/13 16:33:28;;;;;;;;;;;;;;;18.49;51.29;95517.03;5086373;28;2528;-59
2023/10/13 16:35:56;;;;;;;;;;;;;;;18.56;49.61;95525.22;5075230;28;1250;-58
2023/10/13 16:38:24;;;;;;;;;;;;;;;18.53;50.31;95523.75;5075236;28;967;-58
2023/10/13 16:40:51;;;;;;;;;;;;;;;18.45;49.80;95525.78;5074797;28;1155;-59
2023/10/13 16:43:18;;;;;;;;;;;;;;;18.54;49.54;95525.41;5075058;28;996;-59
2023/10/13 16:45:44;;;;;;;;;;;;;;;18.24;51.20;95524.84;5075099;28;1282;-59
2023/10/13 16:48:16;;;;;;;;;;;;;;;18.32;49.89;95529.25;5074886;28;1983;-59
2023/10/13 16:50:59;;;;;;;;;;;;;;;18.45;49.56;95520.38;5092848;28;1142;-59
2023/10/13 16:53:25;;;;;;;;;;;;;;;18.29;51.71;95522.38;5094492;28;1214;-59
2023/10/13 16:55:51;;;;;;;;;;;;;;;18.04;52.06;95519.31;5093717;28;1095;-59
2023/10/13 16:58:17;;;;;;;;;;;;;;;17.83;53.65;95517.50;5094902;28;1046;-58
2023/10/13 17:00:44;;;;;;;;;;;;;;;17.70;53.80;95520.06;5094968;28;1271;-58
2023/10/13 17:03:11;;;;;;;;;;;;;;;17.85;52.25;95525.41;5094690;28;1091;-59
2023/10/13 17:05:42;;;;;;;;;;;;;;;18.01;51.33;95529.72;5094544;28;1000;-59
2023/10/13 17:08:09;;;;;;;;;;;;;;;18.15;50.43;95534.16;5093323;28;1914;-59
2023/10/13 17:10:36;;;;;;;;;;;;;;;18.29;49.88;95533.22;5094195;28;1075;-59
2023/10/13 17:13:04;;;;;;;;;;;;;;;18.46;49.19;95539.13;5093549;28;1047;-59
2023/10/13 17:15:32;;;;;;;;;;;;;;;18.58;48.65;95541.25;5094583;28;1052;-59
2023/10/13 17:18:00;;;;;;;;;;;;;;;18.59;48.23;95542.91;5094477;28;1037;-59
2023/10/13 17:20:26;;;;;;;;;;;;;;;18.61;48.47;95541.69;5094295;28;1095;-59
2023/10/13 17:22:55;;;;;;;;;;;;;;;18.63;48.38;95544.19;5094740;28;984;-59